Paxton, Texas
Current Conditions -  °F | °C
As of 3:56 PM on Thursday 18 Dec 2014 (Local Time) from KSHV Reporting Station
Overcast Overcast  
Wind Chill: 52°   Ceiling: 1200
Heat Index: 52°   Visibility: 8mi
Dew Point: 46°   Wind: 6mph
Humidity: 80%   Direction: 360°N
Pressure: 30.12"   Gusts: NA
Location:  31.9194°N, 94.0667°W
Report Text: KSHV 182156Z 36005KT 8SM OVC012 11/08 A3012 RMK AO2 SLP198 T01110078
Loading
Personal Weather Stations






























Interactive Weather Map New forecast layout! Learn more

10-Day Weather Forecast

Advertisements
Track Severe Weather on mobile